This is the latest recevied weather packets stored in our database for station/object N3FAA. If no packets are shown the sender has not sent any weather packets the latest 10 day(s).
| Time | Temp. | Humidity | Pressure | Rain* | Wind** | Luminosity | Snow |
|---|---|---|---|---|---|---|---|
| 1777947772 | 12.78° C | 69% | 1009.6 hPa | 0 mm | - | 10 W/m² | - |
| 1777947469 | 12.78° C | 67% | 1009.8 hPa | 0 mm | - | 15 W/m² | - |
| 1777947166 | 12.78° C | 66% | 1009.9 hPa | 0 mm | - | 21 W/m² | - |
| 1777946862 | 13.33° C | 66% | 1009.6 hPa | 0 mm | - | 25 W/m² | - |
| 1777946557 | 13.33° C | 65% | 1009.9 hPa | 0 mm | - | 28 W/m² | - |
| 1777946255 | 13.33° C | 65% | 1009.8 hPa | 0 mm | - | 39 W/m² | - |
| 1777945951 | 13.33° C | 64% | 1009.9 hPa | 0 mm | - | 43 W/m² | - |
| 1777945649 | 13.33° C | 63% | 1009.8 hPa | 0 mm | - | 56 W/m² | - |
| 1777945346 | 13.89° C | 63% | 1009.8 hPa | 0 mm | - | 56 W/m² | - |
| 1777945042 | 13.89° C | 63% | 1009.9 hPa | 0 mm | - | 58 W/m² | - |
| 1777944739 | 13.89° C | 61% | 1010 hPa | 0 mm | - | 67 W/m² | - |
| 1777944438 | 13.89° C | 61% | 1009.6 hPa | 0 mm | - | 76 W/m² | - |
| 1777944135 | 14.44° C | 60% | 1009.6 hPa | 0 mm | - | 88 W/m² | - |
| 1777943830 | 14.44° C | 60% | 1009.6 hPa | 0 mm | - | 93 W/m² | - |
| 1777943528 | 13.89° C | 61% | 1009.6 hPa | 0 mm | - | 64 W/m² | - |
| 1777943223 | 14.44° C | 60% | 1010 hPa | 0 mm | - | 64 W/m² | - |
| 1777942920 | 14.44° C | 59% | 1009.8 hPa | 0 mm | - | 78 W/m² | - |
| 1777942616 | 14.44° C | 59% | 1009.5 hPa | 0 mm | - | 101 W/m² | - |
| 1777942313 | 14.44° C | 58% | 1009.8 hPa | 0 mm | - | 101 W/m² | - |
| 1777942010 | 14.44° C | 59% | 1009.8 hPa | 0 mm | - | 93 W/m² | - |
| 1777941707 | 15° C | 57% | 1009.5 hPa | 0 mm | - | 99 W/m² | - |
| 1777941404 | 15.56° C | 54% | 1009.5 hPa | 0 mm | - | 137 W/m² | - |
| 1777941102 | 15° C | 56% | 1009.4 hPa | 0 mm | - | 367 W/m² | - |
| 1777940798 | 15° C | 57% | 1009.6 hPa | 0 mm | - | 126 W/m² | - |
| 1777940496 | 15.56° C | 55% | 1009.8 hPa | 0 mm | - | 121 W/m² | - |
* Rain latest hour (hover to see other rain measurements)
** Current wind speed in m/s (hover to see current wind gust speed)